createdAt,value
2022-11-05T00:02:43.482Z,12.60
2022-11-05T00:05:33.185Z,9.65
2022-11-05T00:08:28.162Z,12.45
2022-11-05T00:10:56.765Z,11.05
2022-11-05T00:13:46.687Z,12.68
2022-11-05T00:16:42.985Z,9.15
2022-11-05T00:19:13.514Z,10.85
2022-11-05T00:22:03.536Z,8.85
2022-11-05T00:24:51.866Z,12.52
2022-11-05T00:27:24.863Z,7.97
2022-11-05T00:29:54.429Z,9.23
2022-11-05T00:32:23.717Z,9.75
2022-11-05T00:34:55.399Z,11.15
2022-11-05T00:37:22.998Z,7.85
2022-11-05T00:39:50.989Z,9.65
2022-11-05T00:42:37.625Z,9.40
2022-11-05T00:45:07.433Z,10.38
2022-11-05T00:48:01.894Z,7.72
2022-11-05T00:50:31.184Z,11.52
2022-11-05T00:53:07.058Z,10.93
2022-11-05T00:55:42.005Z,9.52
2022-11-05T00:58:21.362Z,10.25
2022-11-05T01:01:00.746Z,9.68
2022-11-05T01:03:35.215Z,8.20
2022-11-05T01:06:14.116Z,8.63
2022-11-05T01:08:45.845Z,8.02
2022-11-05T01:11:40.265Z,8.32
2022-11-05T01:14:16.007Z,11.88
2022-11-05T01:16:45.561Z,8.43
2022-11-05T01:19:13.814Z,9.52
2022-11-05T01:21:42.194Z,11.73
2022-11-05T01:24:11.003Z,9.17
2022-11-05T01:26:38.530Z,9.77
2022-11-05T01:29:06.299Z,9.20
2022-11-05T01:31:33.978Z,9.32
2022-11-05T01:34:02.913Z,10.45
2022-11-05T01:36:30.634Z,9.23
2022-11-05T01:39:00.874Z,7.22
2022-11-05T01:41:30.041Z,7.10
2022-11-05T01:43:59.988Z,10.57
2022-11-05T01:46:46.440Z,10.27
2022-11-05T01:49:30.080Z,10.10
2022-11-05T01:52:02.057Z,11.95
2022-11-05T01:54:33.011Z,9.43
2022-11-05T01:57:07.935Z,8.25
2022-11-05T01:59:43.275Z,11.93
2022-11-05T02:02:11.027Z,11.90
2022-11-05T02:05:00.830Z,8.27
2022-11-05T02:07:31.265Z,7.78
2022-11-05T02:10:14.926Z,9.50
2022-11-05T02:12:47.440Z,10.73
2022-11-05T02:15:25.042Z,7.85
2022-11-05T02:20:59.798Z,9.57
2022-11-05T02:23:37.854Z,11.18
2022-11-05T02:26:47.082Z,9.70
2022-11-05T02:29:56.330Z,10.95
2022-11-05T02:33:01.196Z,9.63
2022-11-05T02:35:57.853Z,10.48
2022-11-05T02:38:58.793Z,9.98
2022-11-05T02:42:02.008Z,8.65
2022-11-05T02:44:55.863Z,8.95
2022-11-05T02:47:33.903Z,10.10
2022-11-05T02:50:22.671Z,7.32
2022-11-05T02:53:27.627Z,8.32
2022-11-05T02:56:15.849Z,6.78
2022-11-05T02:58:44.823Z,11.23
2022-11-05T03:01:14.186Z,12.07
2022-11-05T03:03:51.702Z,9.90
2022-11-05T03:07:04.074Z,7.78
2022-11-05T03:10:11.070Z,8.98
2022-11-05T03:12:57.166Z,10.48
2022-11-05T03:15:42.743Z,12.27
2022-11-05T03:18:36.821Z,7.82
2022-11-05T03:21:42.209Z,9.10
2022-11-05T03:24:23.014Z,8.90
2022-11-05T03:27:08.810Z,9.32
2022-11-05T03:29:54.011Z,11.65
2022-11-05T03:32:26.256Z,9.77
2022-11-05T03:35:03.826Z,8.60
2022-11-05T03:37:39.837Z,12.93
2022-11-05T03:40:12.240Z,10.13
2022-11-05T03:42:47.814Z,11.18
2022-11-05T03:45:23.986Z,8.07
2022-11-05T03:48:02.561Z,10.70
2022-11-05T03:50:37.152Z,10.50
2022-11-05T03:53:23.565Z,12.23
2022-11-05T03:56:09.131Z,9.35
2022-11-05T03:58:45.829Z,8.20
2022-11-05T04:01:14.809Z,11.00
2022-11-05T04:03:43.575Z,9.27
2022-11-05T04:06:29.888Z,8.55
2022-11-05T04:09:16.365Z,11.35
2022-11-05T04:12:02.734Z,8.73
2022-11-05T04:14:35.267Z,9.45
2022-11-05T04:17:11.992Z,10.05
2022-11-05T04:20:03.905Z,13.40
2022-11-05T04:22:52.792Z,10.55
2022-11-05T04:25:23.117Z,9.65
2022-11-05T04:27:52.010Z,15.82
2022-11-05T04:30:22.816Z,10.80
2022-11-05T04:33:15.312Z,12.45
2022-11-05T04:35:49.693Z,13.77
2022-11-05T04:38:20.087Z,12.77
2022-11-05T04:40:49.720Z,12.60
2022-11-05T04:43:19.679Z,13.32
2022-11-05T04:45:50.525Z,13.40
2022-11-05T04:48:19.264Z,8.48
2022-11-05T04:50:53.308Z,13.43
2022-11-05T04:53:22.920Z,9.57
2022-11-05T04:55:52.623Z,9.20
2022-11-05T04:58:21.634Z,8.65
2022-11-05T05:00:56.839Z,9.25
2022-11-05T05:03:24.448Z,10.80
2022-11-05T05:05:54.021Z,19.40
2022-11-05T05:08:22.104Z,25.67
2022-11-05T05:10:56.854Z,27.90
2022-11-05T05:13:26.947Z,85.50
2022-11-05T05:15:55.957Z,124.78
2022-11-05T05:18:29.350Z,32.15
2022-11-05T05:21:19.796Z,32.90
2022-11-05T05:23:50.822Z,22.23
2022-11-05T05:26:19.173Z,21.58
2022-11-05T05:28:47.818Z,16.33
2022-11-05T05:31:15.412Z,8.52
2022-11-05T05:33:43.312Z,10.27
2022-11-05T05:36:12.885Z,9.88
2022-11-05T05:38:40.877Z,10.30
2022-11-05T05:41:08.463Z,22.00
2022-11-05T05:43:36.441Z,18.90
2022-11-05T05:46:11.989Z,22.50
2022-11-05T05:48:46.784Z,23.02
2022-11-05T05:51:17.664Z,28.35
2022-11-05T05:53:50.786Z,34.17
2022-11-05T05:56:19.261Z,61.22
2022-11-05T05:58:48.309Z,98.50
2022-11-05T06:01:19.545Z,193.00
2022-11-05T06:03:55.711Z,105.03
2022-11-05T06:06:27.737Z,65.68
2022-11-05T06:09:00.797Z,43.67
2022-11-05T06:11:32.964Z,38.50
2022-11-05T06:16:38.956Z,23.60
2022-11-05T06:19:07.682Z,26.98
2022-11-05T06:21:42.731Z,20.65
2022-11-05T06:24:10.536Z,18.30
2022-11-05T06:26:43.108Z,14.48
2022-11-05T06:29:12.941Z,15.38
2022-11-05T06:31:41.434Z,16.63
2022-11-05T06:34:11.987Z,16.00
2022-11-05T06:36:40.277Z,15.55
2022-11-05T06:39:12.905Z,14.27
2022-11-05T06:42:16.703Z,15.15
2022-11-05T06:44:35.885Z,10.68
2022-11-05T06:47:05.886Z,28.70
2022-11-05T06:49:33.533Z,33.00
2022-11-05T06:52:01.102Z,15.40
2022-11-05T06:54:29.938Z,15.77
2022-11-05T06:59:25.405Z,14.85
2022-11-05T07:01:56.984Z,12.13
2022-11-05T07:04:25.418Z,11.10
2022-11-05T07:06:52.997Z,11.55
2022-11-05T07:09:21.071Z,11.48
2022-11-05T07:11:48.919Z,17.33
2022-11-05T07:14:17.473Z,14.77
2022-11-05T07:16:46.917Z,15.30
2022-11-05T07:19:16.496Z,15.57
2022-11-05T07:21:47.782Z,16.05
2022-11-05T07:24:16.906Z,12.40
2022-11-05T07:26:44.812Z,10.10
2022-11-05T07:29:12.632Z,13.07
2022-11-05T07:31:42.088Z,21.88
2022-11-05T07:34:09.878Z,37.85
2022-11-05T07:36:39.477Z,35.83
2022-11-05T07:39:10.173Z,16.83
2022-11-05T07:41:39.072Z,11.13
2022-11-05T07:44:07.247Z,11.65
2022-11-05T07:46:34.963Z,7.63
2022-11-05T07:49:09.922Z,6.63
2022-11-05T07:51:37.754Z,6.95
2022-11-05T07:54:06.257Z,12.60
2022-11-05T07:56:34.245Z,9.20
2022-11-05T07:59:01.930Z,6.50
2022-11-05T08:01:29.868Z,6.80
2022-11-05T08:03:57.428Z,11.75
2022-11-05T08:06:26.873Z,7.82
2022-11-05T08:08:54.346Z,7.05
2022-11-05T08:11:22.498Z,8.50
2022-11-05T08:16:19.436Z,8.98
2022-11-05T08:18:50.161Z,10.13
2022-11-05T08:21:17.920Z,10.25
2022-11-05T08:23:45.571Z,10.68
2022-11-05T08:26:13.480Z,11.23
2022-11-05T08:28:47.899Z,8.65
2022-11-05T08:31:18.046Z,8.68
2022-11-05T08:33:46.167Z,9.13
2022-11-05T08:36:13.817Z,11.02
2022-11-05T08:38:41.522Z,11.93
2022-11-05T08:41:09.317Z,12.05
2022-11-05T08:43:36.949Z,13.27
2022-11-05T08:46:04.522Z,11.02
2022-11-05T08:48:32.151Z,6.97
2022-11-05T08:51:01.874Z,3.92
2022-11-05T08:53:30.151Z,3.08
2022-11-05T08:55:59.372Z,2.67
2022-11-05T08:58:27.098Z,2.10
2022-11-05T09:00:58.964Z,2.58
2022-11-05T09:03:29.649Z,4.78
2022-11-05T09:05:57.201Z,2.03
2022-11-05T09:08:24.710Z,3.20
2022-11-05T09:10:52.434Z,2.90
2022-11-05T09:13:20.574Z,4.65
2022-11-05T09:15:50.908Z,5.95
2022-11-05T09:18:20.638Z,5.38
2022-11-05T09:20:48.629Z,5.30
2022-11-05T09:23:17.092Z,4.18
2022-11-05T09:25:45.449Z,5.93
2022-11-05T09:28:18.888Z,7.05
2022-11-05T09:30:49.764Z,3.03
2022-11-05T09:33:21.710Z,3.50
2022-11-05T09:35:49.363Z,4.13
2022-11-05T09:38:16.983Z,4.40
2022-11-05T09:41:28.473Z,3.95
2022-11-05T09:44:06.126Z,2.22
2022-11-05T09:46:59.457Z,4.00
2022-11-05T09:49:40.063Z,2.90
2022-11-05T09:52:18.708Z,2.33
2022-11-05T09:54:48.855Z,3.42
2022-11-05T09:57:24.609Z,2.97
2022-11-05T09:59:57.914Z,3.15
2022-11-05T10:02:33.625Z,2.20
2022-11-05T10:05:10.309Z,2.17
2022-11-05T10:07:47.601Z,2.42
2022-11-05T10:10:37.835Z,2.05
2022-11-05T10:13:48.804Z,2.22
2022-11-05T10:16:27.478Z,2.50
2022-11-05T10:19:06.462Z,2.40
2022-11-05T10:22:04.450Z,2.70
2022-11-05T10:24:23.150Z,2.47
2022-11-05T10:26:54.813Z,1.90
2022-11-05T10:29:33.175Z,2.20
2022-11-05T10:34:34.526Z,2.50
2022-11-05T10:37:02.478Z,1.90
2022-11-05T10:39:33.390Z,4.82
2022-11-05T10:42:37.634Z,2.63
2022-11-05T10:45:43.329Z,1.90
2022-11-05T10:48:49.148Z,3.00
2022-11-05T10:51:17.403Z,1.80
2022-11-05T10:54:01.537Z,2.45
2022-11-05T10:56:39.802Z,2.80
2022-11-05T10:59:23.656Z,2.22
2022-11-05T11:02:15.003Z,8.57
2022-11-05T11:04:43.457Z,2.53
2022-11-05T11:07:25.731Z,2.65
2022-11-05T11:09:53.954Z,4.00
2022-11-05T11:12:27.916Z,4.28
2022-11-05T11:15:13.842Z,4.38
2022-11-05T11:17:43.155Z,2.38
2022-11-05T11:20:33.301Z,2.25
2022-11-05T11:23:13.166Z,7.57
2022-11-05T11:25:53.600Z,3.47
2022-11-05T11:28:38.671Z,3.70
2022-11-05T11:31:14.861Z,2.65
2022-11-05T11:33:53.883Z,1.92
2022-11-05T11:36:32.897Z,2.53
2022-11-05T11:39:04.751Z,2.00
2022-11-05T11:41:44.054Z,3.10
2022-11-05T11:44:27.015Z,3.63
2022-11-05T11:47:02.029Z,4.70
2022-11-05T11:49:41.263Z,2.22
2022-11-05T11:52:32.513Z,4.50
2022-11-05T11:55:12.269Z,4.15
2022-11-05T11:57:51.207Z,2.10
2022-11-05T12:00:24.179Z,1.80
2022-11-05T12:03:21.865Z,5.47
2022-11-05T12:06:21.634Z,3.83
2022-11-05T12:09:01.946Z,7.20
2022-11-05T12:12:05.507Z,9.20
2022-11-05T12:15:02.652Z,7.32
2022-11-05T12:17:44.403Z,2.60
2022-11-05T12:20:36.130Z,3.00
2022-11-05T12:23:31.872Z,3.38
2022-11-05T12:26:34.750Z,3.83
2022-11-05T12:29:24.305Z,3.10
2022-11-05T12:32:05.287Z,2.97
2022-11-05T12:34:40.654Z,2.90
2022-11-05T12:37:33.756Z,2.55
2022-11-05T12:40:37.973Z,2.63
2022-11-05T12:43:36.178Z,3.67
2022-11-05T12:46:33.829Z,5.40
2022-11-05T12:49:45.774Z,4.97
2022-11-05T12:52:32.081Z,3.22
2022-11-05T12:55:19.033Z,4.35
2022-11-05T12:58:01.637Z,2.60
2022-11-05T13:00:33.095Z,2.03
2022-11-05T13:03:52.983Z,2.17
2022-11-05T13:06:40.365Z,3.35
2022-11-05T13:09:24.499Z,2.05
2022-11-05T13:12:06.759Z,4.22
2022-11-05T13:14:48.510Z,3.33
2022-11-05T13:17:25.317Z,2.60
2022-11-05T13:20:20.791Z,2.67
2022-11-05T13:23:00.031Z,6.90
2022-11-05T13:25:39.007Z,2.65
2022-11-05T13:28:38.304Z,5.47
2022-11-05T13:31:21.939Z,4.10
2022-11-05T13:33:56.805Z,12.70
2022-11-05T13:36:50.756Z,4.50
2022-11-05T13:39:23.958Z,6.70
2022-11-05T13:42:03.547Z,4.28
2022-11-05T13:45:16.741Z,5.40
2022-11-05T13:48:25.282Z,6.15
2022-11-05T13:51:08.886Z,18.60
2022-11-05T13:54:03.925Z,17.90
2022-11-05T13:57:20.810Z,3.60
2022-11-05T14:00:06.355Z,2.92
2022-11-05T14:03:06.921Z,3.03
2022-11-05T14:05:40.324Z,3.80
2022-11-05T14:08:24.217Z,3.45
2022-11-05T14:11:04.946Z,3.45
2022-11-05T14:13:43.851Z,5.97
2022-11-05T14:16:25.931Z,3.00
2022-11-05T14:19:19.779Z,2.50
2022-11-05T14:21:55.518Z,2.63
2022-11-05T14:24:44.252Z,2.33
2022-11-05T14:27:11.864Z,3.80
2022-11-05T14:29:47.927Z,2.65
2022-11-05T14:32:19.799Z,3.25
2022-11-05T14:35:18.052Z,3.85
2022-11-05T14:37:57.310Z,3.67
2022-11-05T14:40:38.268Z,3.53
2022-11-05T14:43:22.864Z,5.70
2022-11-05T14:46:06.328Z,4.68
2022-11-05T14:48:48.785Z,8.07
2022-11-05T14:51:33.635Z,4.45
2022-11-05T14:54:23.018Z,3.30
2022-11-05T14:56:56.384Z,3.17
2022-11-05T14:59:24.909Z,4.50
2022-11-05T15:02:01.731Z,3.33
2022-11-05T15:04:42.564Z,4.55
2022-11-05T15:07:10.014Z,7.60
2022-11-05T15:09:55.793Z,20.30
2022-11-05T15:12:46.717Z,13.93
2022-11-05T15:15:44.756Z,5.40
2022-11-05T15:18:30.748Z,10.98
2022-11-05T15:21:02.492Z,6.88
2022-11-05T15:23:43.292Z,5.20
2022-11-05T15:26:37.423Z,12.15
2022-11-05T15:29:19.208Z,4.20
2022-11-05T15:31:47.803Z,5.05
2022-11-05T15:34:30.249Z,14.68
2022-11-05T15:37:25.703Z,4.00
2022-11-05T15:39:55.428Z,6.95
2022-11-05T15:42:27.823Z,6.57
2022-11-05T15:45:00.214Z,9.48
2022-11-05T15:47:36.439Z,6.75
2022-11-05T15:50:15.094Z,10.13
2022-11-05T15:52:53.824Z,5.55
2022-11-05T15:58:01.091Z,7.93
2022-11-05T16:00:36.628Z,7.75
2022-11-05T16:03:24.744Z,4.45
2022-11-05T16:05:54.857Z,9.63
2022-11-05T16:11:01.095Z,6.18
2022-11-05T16:13:38.697Z,12.35
2022-11-05T16:19:03.731Z,16.95
2022-11-05T16:21:54.722Z,19.92
2022-11-05T16:24:28.211Z,22.85
2022-11-05T16:27:07.591Z,18.95
2022-11-05T16:29:47.507Z,20.98
2022-11-05T16:32:25.276Z,19.30
2022-11-05T16:35:04.988Z,16.50
2022-11-05T16:37:46.406Z,20.33
2022-11-05T16:40:23.901Z,17.88
2022-11-05T16:42:54.565Z,19.23
2022-11-05T16:45:25.371Z,20.02
2022-11-05T16:47:52.978Z,18.00
2022-11-05T16:50:30.199Z,18.77
2022-11-05T16:52:57.853Z,14.63
2022-11-05T16:55:25.666Z,17.15
2022-11-05T16:57:55.838Z,13.80
2022-11-05T17:00:25.597Z,34.38
2022-11-05T17:03:00.729Z,21.65
2022-11-05T17:05:31.637Z,22.42
2022-11-05T17:08:01.184Z,14.93
2022-11-05T17:10:29.510Z,14.48
2022-11-05T17:12:57.083Z,25.38
2022-11-05T17:15:31.612Z,19.43
2022-11-05T17:18:03.745Z,11.50
2022-11-05T17:20:44.953Z,8.60
2022-11-05T17:23:16.484Z,8.13
2022-11-05T17:25:49.165Z,13.30
2022-11-05T17:28:18.317Z,10.75
2022-11-05T17:30:52.176Z,14.73
2022-11-05T17:33:23.455Z,11.55
2022-11-05T17:35:52.706Z,29.48
2022-11-05T17:38:22.682Z,13.82
2022-11-05T17:40:51.064Z,8.93
2022-11-05T17:43:20.656Z,6.85
2022-11-05T17:45:51.919Z,13.52
2022-11-05T17:48:21.518Z,14.45
2022-11-05T17:50:51.047Z,17.63
2022-11-05T17:53:19.541Z,13.85
2022-11-05T17:58:17.693Z,10.80
2022-11-05T18:00:47.623Z,11.95
2022-11-05T18:03:21.142Z,17.40
2022-11-05T18:06:02.285Z,16.48
2022-11-05T18:08:30.859Z,19.98
2022-11-05T18:13:26.069Z,25.27
2022-11-05T18:15:54.532Z,16.77
2022-11-05T18:20:59.695Z,9.68
2022-11-05T18:23:28.289Z,18.52
2022-11-05T18:25:55.900Z,16.92
2022-11-05T18:28:24.493Z,16.45
2022-11-05T18:33:20.296Z,20.40
2022-11-05T18:35:48.961Z,19.25
2022-11-05T18:38:22.664Z,24.13
2022-11-05T18:40:52.395Z,35.95
2022-11-05T18:43:20.863Z,37.88
2022-11-05T18:45:57.118Z,22.42
2022-11-05T18:48:30.889Z,16.60
2022-11-05T18:51:02.050Z,26.03
2022-11-05T18:53:30.099Z,22.52
2022-11-05T18:55:57.829Z,17.77
2022-11-05T18:58:25.554Z,15.25
2022-11-05T19:00:55.711Z,10.52
2022-11-05T19:03:24.587Z,12.77
2022-11-05T19:05:54.723Z,8.88
2022-11-05T19:08:24.226Z,7.90
2022-11-05T19:10:53.424Z,17.02
2022-11-05T19:13:20.989Z,7.43
2022-11-05T19:15:48.687Z,8.88
2022-11-05T19:20:46.024Z,20.17
2022-11-05T19:23:15.690Z,12.48
2022-11-05T19:25:45.429Z,9.60
2022-11-05T19:28:15.431Z,13.02
2022-11-05T19:30:45.194Z,14.63
2022-11-05T19:33:12.781Z,7.38
2022-11-05T19:35:42.390Z,12.50
2022-11-05T19:38:10.567Z,9.73
2022-11-05T19:43:11.652Z,9.13
2022-11-05T19:45:45.269Z,10.80
2022-11-05T19:48:19.166Z,7.57
2022-11-05T19:50:47.538Z,7.55
2022-11-05T19:53:15.461Z,8.60
2022-11-05T19:55:45.582Z,9.30
2022-11-05T19:58:13.647Z,12.55
2022-11-05T20:00:45.211Z,14.45
2022-11-05T20:03:13.327Z,11.52
2022-11-05T20:05:41.578Z,11.13
2022-11-05T20:08:09.527Z,7.72
2022-11-05T20:10:39.853Z,7.97
2022-11-05T20:13:07.710Z,8.68
2022-11-05T20:15:41.810Z,11.80
2022-11-05T20:18:10.429Z,6.93
2022-11-05T20:20:42.059Z,7.88
2022-11-05T20:23:11.813Z,8.93
2022-11-05T20:25:39.774Z,8.43
2022-11-05T20:28:07.670Z,7.15
2022-11-05T20:30:40.544Z,10.10
2022-11-05T20:33:08.138Z,10.75
2022-11-05T20:35:39.813Z,15.38
2022-11-05T20:38:07.821Z,9.88
2022-11-05T20:40:35.480Z,10.18
2022-11-05T20:43:04.708Z,14.90
2022-11-05T20:45:32.333Z,12.02
2022-11-05T20:48:06.781Z,13.07
2022-11-05T20:50:36.654Z,14.55
2022-11-05T20:53:04.361Z,18.83
2022-11-05T20:55:32.369Z,28.80
2022-11-05T20:58:02.636Z,32.70
2022-11-05T21:00:32.512Z,37.47
2022-11-05T21:03:00.713Z,22.55
2022-11-05T21:05:34.213Z,28.55
2022-11-05T21:08:03.554Z,24.90
2022-11-05T21:10:38.455Z,21.67
2022-11-05T21:13:08.633Z,17.70
2022-11-05T21:15:36.329Z,19.52
2022-11-05T21:18:05.491Z,15.73
2022-11-05T21:20:33.091Z,11.38
2022-11-05T21:23:01.510Z,13.40
2022-11-05T21:27:56.481Z,12.02
2022-11-05T21:30:24.153Z,15.85
2022-11-05T21:32:53.591Z,18.23
2022-11-05T21:35:21.228Z,17.08
2022-11-05T21:37:50.523Z,20.05
2022-11-05T21:40:18.149Z,20.88
2022-11-05T21:42:46.547Z,20.55
2022-11-05T21:45:14.121Z,20.55
2022-11-05T21:47:42.196Z,19.17
2022-11-05T21:50:10.667Z,17.60
2022-11-05T21:52:57.094Z,23.35
2022-11-05T21:55:43.282Z,29.52
2022-11-05T21:58:37.629Z,28.30
2022-11-05T22:01:05.497Z,25.45
2022-11-05T22:03:33.337Z,17.75
2022-11-05T22:06:00.941Z,22.13
2022-11-05T22:08:29.326Z,18.10
2022-11-05T22:13:24.458Z,15.23
2022-11-05T22:15:56.298Z,9.67
2022-11-05T22:18:24.117Z,11.00
2022-11-05T22:20:51.664Z,9.25
2022-11-05T22:23:19.450Z,5.83
2022-11-05T22:25:46.921Z,8.07
2022-11-05T22:28:14.732Z,8.27
2022-11-05T22:30:42.451Z,3.90
2022-11-05T22:33:09.973Z,3.13
2022-11-05T22:35:39.866Z,3.33
2022-11-05T22:38:08.482Z,3.03
2022-11-05T22:40:38.642Z,3.95
2022-11-05T22:43:07.479Z,16.15
2022-11-05T22:45:36.838Z,13.43
2022-11-05T22:48:06.960Z,10.52
2022-11-05T22:50:34.771Z,8.80
2022-11-05T22:53:03.448Z,5.90
2022-11-05T22:55:30.985Z,7.00
2022-11-05T22:57:58.630Z,10.70
2022-11-05T23:00:37.718Z,12.63
2022-11-05T23:03:05.836Z,8.93
2022-11-05T23:05:33.410Z,13.02
2022-11-05T23:08:19.260Z,9.43
2022-11-05T23:11:05.451Z,6.45
2022-11-05T23:13:33.402Z,7.85
2022-11-05T23:16:23.970Z,4.43
2022-11-05T23:19:09.825Z,5.30
2022-11-05T23:21:56.288Z,4.90
2022-11-05T23:24:24.252Z,3.63
2022-11-05T23:26:51.934Z,3.67
2022-11-05T23:29:27.832Z,3.25
2022-11-05T23:32:14.708Z,3.58
2022-11-05T23:34:42.611Z,3.88
2022-11-05T23:37:28.973Z,4.20
2022-11-05T23:39:57.126Z,3.08
2022-11-05T23:42:43.533Z,2.90
2022-11-05T23:45:31.872Z,2.40
2022-11-05T23:48:17.110Z,2.58
2022-11-05T23:51:09.864Z,3.03
2022-11-05T23:53:40.724Z,4.20
2022-11-05T23:56:13.185Z,3.22
2022-11-05T23:58:42.591Z,2.53
